sensor_id;sensor_type;location;lat;lon;timestamp;pressure;altitude;pressure_sealevel;temperature;humidity
36692;BME280;22678;52.052;4.242;2022-07-29T00:01:05;101826.94;;;19.37;52.20
36692;BME280;22678;52.052;4.242;2022-07-29T00:03:30;101823.66;;;19.27;52.37
36692;BME280;22678;52.052;4.242;2022-07-29T00:05:55;101799.19;;;19.13;52.59
36692;BME280;22678;52.052;4.242;2022-07-29T00:08:20;101829.88;;;19.28;52.04
36692;BME280;22678;52.052;4.242;2022-07-29T00:10:46;101808.19;;;19.08;52.15
36692;BME280;22678;52.052;4.242;2022-07-29T00:13:11;101814.22;;;19.15;52.05
36692;BME280;22678;52.052;4.242;2022-07-29T00:15:37;101830.09;;;19.20;52.21
36692;BME280;22678;52.052;4.242;2022-07-29T00:18:02;101831.06;;;19.17;52.04
36692;BME280;22678;52.052;4.242;2022-07-29T00:20:28;101824.19;;;19.08;52.00
36692;BME280;22678;52.052;4.242;2022-07-29T00:22:53;101825.94;;;19.10;51.94
36692;BME280;22678;52.052;4.242;2022-07-29T00:25:18;101816.38;;;19.02;52.02
36692;BME280;22678;52.052;4.242;2022-07-29T00:27:44;101810.28;;;18.97;52.09
36692;BME280;22678;52.052;4.242;2022-07-29T00:30:11;101819.03;;;19.02;52.08
36692;BME280;22678;52.052;4.242;2022-07-29T00:32:36;101827.94;;;19.01;52.02
36692;BME280;22678;52.052;4.242;2022-07-29T00:35:02;101802.41;;;18.93;52.17
36692;BME280;22678;52.052;4.242;2022-07-29T00:37:46;101794.56;;;18.88;52.30
36692;BME280;22678;52.052;4.242;2022-07-29T00:40:11;101804.34;;;18.87;51.90
36692;BME280;22678;52.052;4.242;2022-07-29T00:42:44;101806.09;;;18.88;52.22
36692;BME280;22678;52.052;4.242;2022-07-29T00:45:10;101806.19;;;18.84;52.16
36692;BME280;22678;52.052;4.242;2022-07-29T00:47:35;101793.91;;;18.78;52.39
36692;BME280;22678;52.052;4.242;2022-07-29T00:50:01;101804.47;;;18.81;52.51
36692;BME280;22678;52.052;4.242;2022-07-29T00:52:26;101775.63;;;18.64;52.64
36692;BME280;22678;52.052;4.242;2022-07-29T00:54:52;101802.75;;;18.80;52.47
36692;BME280;22678;52.052;4.242;2022-07-29T00:57:17;101794.13;;;18.70;52.74
36692;BME280;22678;52.052;4.242;2022-07-29T00:59:42;101791.50;;;18.69;52.78
36692;BME280;22678;52.052;4.242;2022-07-29T01:02:08;101804.78;;;18.70;52.85
36692;BME280;22678;52.052;4.242;2022-07-29T01:04:33;101789.84;;;18.63;53.11
36692;BME280;22678;52.052;4.242;2022-07-29T01:07:01;101779.47;;;18.54;52.98
36692;BME280;22678;52.052;4.242;2022-07-29T01:09:27;101801.34;;;18.65;53.22
36692;BME280;22678;52.052;4.242;2022-07-29T01:11:53;101789.13;;;18.58;53.10
36692;BME280;22678;52.052;4.242;2022-07-29T01:14:18;101774.44;;;18.42;53.34
36692;BME280;22678;52.052;4.242;2022-07-29T01:16:52;101791.91;;;18.52;53.65
36692;BME280;22678;52.052;4.242;2022-07-29T01:30:02;101778.19;;;18.34;54.34
36692;BME280;22678;52.052;4.242;2022-07-29T01:32:29;101787.91;;;18.35;54.45
36692;BME280;22678;52.052;4.242;2022-07-29T01:35:06;101779.06;;;18.35;54.45
36692;BME280;22678;52.052;4.242;2022-07-29T01:37:39;101778.41;;;18.25;54.15
36692;BME280;22678;52.052;4.242;2022-07-29T01:40:11;101773.91;;;18.29;54.53
36692;BME280;22678;52.052;4.242;2022-07-29T01:42:44;101765.16;;;18.24;54.64
36692;BME280;22678;52.052;4.242;2022-07-29T01:45:40;101778.25;;;18.31;54.77
36692;BME280;22678;52.052;4.242;2022-07-29T01:51:08;101741.56;;;18.10;54.94
36692;BME280;22678;52.052;4.242;2022-07-29T01:54:04;101761.81;;;18.15;55.02
36692;BME280;22678;52.052;4.242;2022-07-29T01:56:31;101766.22;;;18.16;55.00
36692;BME280;22678;52.052;4.242;2022-07-29T01:58:59;101759.22;;;18.12;55.25
36692;BME280;22678;52.052;4.242;2022-07-29T02:01:26;101734.00;;;17.91;55.27
36692;BME280;22678;52.052;4.242;2022-07-29T02:03:53;101754.16;;;18.01;55.41
36692;BME280;22678;52.052;4.242;2022-07-29T02:06:21;101748.09;;;17.96;55.61
36692;BME280;22678;52.052;4.242;2022-07-29T02:08:49;101746.34;;;17.95;55.50
36692;BME280;22678;52.052;4.242;2022-07-29T02:11:15;101743.75;;;17.92;55.76
36692;BME280;22678;52.052;4.242;2022-07-29T02:13:42;101747.38;;;17.88;55.63
36692;BME280;22678;52.052;4.242;2022-07-29T02:16:09;101764.88;;;17.98;55.68
36692;BME280;22678;52.052;4.242;2022-07-29T02:18:37;101769.34;;;17.98;55.67
36692;BME280;22678;52.052;4.242;2022-07-29T02:21:04;101750.09;;;17.85;55.48
36692;BME280;22678;52.052;4.242;2022-07-29T02:23:31;101763.22;;;17.94;55.79
36692;BME280;22678;52.052;4.242;2022-07-29T02:25:58;101730.06;;;17.70;55.86
36692;BME280;22678;52.052;4.242;2022-07-29T02:28:26;101751.97;;;17.80;55.85
36692;BME280;22678;52.052;4.242;2022-07-29T02:30:54;101748.50;;;17.78;55.89
36692;BME280;22678;52.052;4.242;2022-07-29T02:33:22;101751.16;;;17.78;56.08
36692;BME280;22678;52.052;4.242;2022-07-29T02:35:49;101759.91;;;17.83;56.11
36692;BME280;22678;52.052;4.242;2022-07-29T02:38:16;101759.06;;;17.81;56.22
36692;BME280;22678;52.052;4.242;2022-07-29T02:41:03;101745.13;;;17.69;55.97
36692;BME280;22678;52.052;4.242;2022-07-29T02:43:30;101746.06;;;17.68;56.19
36692;BME280;22678;52.052;4.242;2022-07-29T02:45:58;101752.13;;;17.74;56.19
36692;BME280;22678;52.052;4.242;2022-07-29T02:48:33;101763.56;;;17.79;56.02
36692;BME280;22678;52.052;4.242;2022-07-29T02:51:06;101744.06;;;17.77;56.24
36692;BME280;22678;52.052;4.242;2022-07-29T02:53:33;101737.31;;;17.63;56.05
36692;BME280;22678;52.052;4.242;2022-07-29T02:56:01;101752.13;;;17.74;56.30
36692;BME280;22678;52.052;4.242;2022-07-29T02:58:34;101755.66;;;17.76;56.25
36692;BME280;22678;52.052;4.242;2022-07-29T03:01:02;101753.91;;;17.75;56.20
36692;BME280;22678;52.052;4.242;2022-07-29T03:03:33;101736.44;;;17.63;56.24
36692;BME280;22678;52.052;4.242;2022-07-29T03:06:01;101721.56;;;17.54;56.30
36692;BME280;22678;52.052;4.242;2022-07-29T03:08:28;101723.44;;;17.49;56.52
36692;BME280;22678;52.052;4.242;2022-07-29T03:10:55;101732.13;;;17.57;56.45
36692;BME280;22678;52.052;4.242;2022-07-29T03:13:21;101729.66;;;17.49;56.38
36692;BME280;22678;52.052;4.242;2022-07-29T03:15:47;101753.34;;;17.60;56.53
36692;BME280;22678;52.052;4.242;2022-07-29T03:18:13;101747.16;;;17.60;56.42
36692;BME280;22678;52.052;4.242;2022-07-29T03:20:39;101743.66;;;17.56;56.22
36692;BME280;22678;52.052;4.242;2022-07-29T03:23:05;101731.41;;;17.49;56.59
36692;BME280;22678;52.052;4.242;2022-07-29T03:25:30;101739.28;;;17.55;56.59
36692;BME280;22678;52.052;4.242;2022-07-29T03:27:56;101732.44;;;17.45;56.39
36692;BME280;22678;52.052;4.242;2022-07-29T03:30:22;101726.47;;;17.33;56.52
36692;BME280;22678;52.052;4.242;2022-07-29T03:32:49;101741.34;;;17.42;56.42
36692;BME280;22678;52.052;4.242;2022-07-29T03:35:14;101718.53;;;17.32;56.50
36692;BME280;22678;52.052;4.242;2022-07-29T03:37:42;101743.94;;;17.45;56.46
36692;BME280;22678;52.052;4.242;2022-07-29T03:40:09;101736.84;;;17.44;56.38
36692;BME280;22678;52.052;4.242;2022-07-29T03:42:38;101738.56;;;17.47;56.54
36692;BME280;22678;52.052;4.242;2022-07-29T03:45:10;101739.47;;;17.46;56.39
36692;BME280;22678;52.052;4.242;2022-07-29T03:47:41;101735.06;;;17.46;56.52
36692;BME280;22678;52.052;4.242;2022-07-29T03:50:10;101735.09;;;17.45;56.47
36692;BME280;22678;52.052;4.242;2022-07-29T03:52:37;101740.44;;;17.43;56.44
36692;BME280;22678;52.052;4.242;2022-07-29T03:55:03;101739.69;;;17.37;56.58
36692;BME280;22678;52.052;4.242;2022-07-29T03:57:30;101746.69;;;17.41;56.54
36692;BME280;22678;52.052;4.242;2022-07-29T03:59:56;101745.84;;;17.40;56.50
36692;BME280;22678;52.052;4.242;2022-07-29T04:02:23;101745.00;;;17.37;56.69
36692;BME280;22678;52.052;4.242;2022-07-29T04:04:48;101744.97;;;17.38;56.51
36692;BME280;22678;52.052;4.242;2022-07-29T04:07:15;101747.66;;;17.37;56.69
36692;BME280;22678;52.052;4.242;2022-07-29T04:09:41;101747.72;;;17.33;56.52
36692;BME280;22678;52.052;4.242;2022-07-29T04:12:06;101736.38;;;17.25;56.63
36692;BME280;22678;52.052;4.242;2022-07-29T04:14:32;101729.44;;;17.18;56.76
36692;BME280;22678;52.052;4.242;2022-07-29T04:16:59;101733.78;;;17.22;56.68
36692;BME280;22678;52.052;4.242;2022-07-29T04:19:25;101734.72;;;17.21;56.55
36692;BME280;22678;52.052;4.242;2022-07-29T04:21:50;101741.00;;;17.17;56.61
36692;BME280;22678;52.052;4.242;2022-07-29T04:24:16;101748.84;;;17.23;56.52
36692;BME280;22678;52.052;4.242;2022-07-29T04:26:41;101741.84;;;17.19;56.97
36692;BME280;22678;52.052;4.242;2022-07-29T04:29:07;101724.34;;;17.09;56.69
36692;BME280;22678;52.052;4.242;2022-07-29T04:31:32;101756.84;;;17.22;56.72
36692;BME280;22678;52.052;4.242;2022-07-29T04:33:57;101736.72;;;17.10;57.00
36692;BME280;22678;52.052;4.242;2022-07-29T04:36:22;101744.56;;;17.16;56.87
36692;BME280;22678;52.052;4.242;2022-07-29T04:38:48;101732.38;;;17.06;56.93
36692;BME280;22678;52.052;4.242;2022-07-29T04:41:13;101731.53;;;17.04;57.09
36692;BME280;22678;52.052;4.242;2022-07-29T04:43:39;101755.13;;;17.19;56.83
36692;BME280;22678;52.052;4.242;2022-07-29T04:46:06;101749.94;;;17.13;57.15
36692;BME280;22678;52.052;4.242;2022-07-29T04:48:31;101750.78;;;17.15;57.03
36692;BME280;22678;52.052;4.242;2022-07-29T04:50:56;101760.44;;;17.19;57.20
36692;BME280;22678;52.052;4.242;2022-07-29T04:53:22;101733.28;;;17.05;57.18
36692;BME280;22678;52.052;4.242;2022-07-29T04:55:48;101760.41;;;17.21;56.97
36692;BME280;22678;52.052;4.242;2022-07-29T04:58:13;101751.59;;;17.19;57.09
36692;BME280;22678;52.052;4.242;2022-07-29T05:00:39;101753.31;;;17.21;57.15
36692;BME280;22678;52.052;4.242;2022-07-29T05:03:04;101763.84;;;17.26;57.08
36692;BME280;22678;52.052;4.242;2022-07-29T05:05:29;101755.91;;;17.24;57.01
36692;BME280;22678;52.052;4.242;2022-07-29T05:07:55;101767.09;;;17.39;56.91
36692;BME280;22678;52.052;4.242;2022-07-29T05:10:20;101760.06;;;17.38;57.15
36692;BME280;22678;52.052;4.242;2022-07-29T05:12:46;101766.81;;;17.52;56.87
36692;BME280;22678;52.052;4.242;2022-07-29T05:15:11;101745.56;;;17.51;56.98
36692;BME280;22678;52.052;4.242;2022-07-29T05:17:37;101708.66;;;17.37;56.80
36692;BME280;22678;52.052;4.242;2022-07-29T05:20:03;101713.78;;;17.46;56.86
36692;BME280;22678;52.052;4.242;2022-07-29T05:22:28;101748.66;;;17.72;56.88
36692;BME280;22678;52.052;4.242;2022-07-29T05:24:53;101754.69;;;17.78;56.55
36692;BME280;22678;52.052;4.242;2022-07-29T05:27:19;101769.50;;;17.89;56.38
36692;BME280;22678;52.052;4.242;2022-07-29T05:29:44;101735.34;;;17.72;56.28
36692;BME280;22678;52.052;4.242;2022-07-29T05:32:09;101756.13;;;17.95;56.28
36692;BME280;22678;52.052;4.242;2022-07-29T05:34:35;101755.91;;;18.02;56.12
36692;BME280;22678;52.052;4.242;2022-07-29T05:37:00;101756.75;;;18.04;55.99
36692;BME280;22678;52.052;4.242;2022-07-29T05:39:25;101776.97;;;18.12;55.69
36692;BME280;22678;52.052;4.242;2022-07-29T05:41:51;101746.31;;;17.97;55.60
36692;BME280;22678;52.052;4.242;2022-07-29T05:44:16;101774.31;;;18.12;55.75
36692;BME280;22678;52.052;4.242;2022-07-29T05:46:42;101782.22;;;18.15;55.73
36692;BME280;22678;52.052;4.242;2022-07-29T05:49:07;101755.03;;;18.03;55.83
36692;BME280;22678;52.052;4.242;2022-07-29T05:51:33;101783.13;;;18.15;56.09
36692;BME280;22678;52.052;4.242;2022-07-29T05:53:58;101783.97;;;18.16;56.19
36692;BME280;22678;52.052;4.242;2022-07-29T05:56:24;101773.50;;;18.10;56.25
36692;BME280;22678;52.052;4.242;2022-07-29T05:58:50;101774.28;;;18.13;56.03
36692;BME280;22678;52.052;4.242;2022-07-29T06:01:15;101773.50;;;18.10;56.29
36692;BME280;22678;52.052;4.242;2022-07-29T06:03:41;101779.56;;;18.15;56.45
36692;BME280;22678;52.052;4.242;2022-07-29T06:06:06;101783.06;;;18.17;56.61
36692;BME280;22678;52.052;4.242;2022-07-29T06:08:32;101780.50;;;18.14;56.40
36692;BME280;22678;52.052;4.242;2022-07-29T06:10:59;101782.09;;;18.19;56.45
36692;BME280;22678;52.052;4.242;2022-07-29T06:13:24;101792.66;;;18.23;56.57
36692;BME280;22678;52.052;4.242;2022-07-29T06:15:49;101789.09;;;18.24;56.75
36692;BME280;22678;52.052;4.242;2022-07-29T06:18:15;101766.34;;;18.12;57.37
36692;BME280;22678;52.052;4.242;2022-07-29T06:20:40;101773.00;;;18.28;56.83
36692;BME280;22678;52.052;4.242;2022-07-29T06:23:06;101793.03;;;18.43;56.79
36692;BME280;22678;52.052;4.242;2022-07-29T06:25:31;101778.72;;;18.47;56.70
36692;BME280;22678;52.052;4.242;2022-07-29T06:28:01;101788.34;;;18.53;56.44
36692;BME280;22678;52.052;4.242;2022-07-29T06:30:27;101776.84;;;18.52;56.40
36692;BME280;22678;52.052;4.242;2022-07-29T06:32:53;101784.44;;;18.66;56.45
36692;BME280;22678;52.052;4.242;2022-07-29T06:35:19;101792.31;;;18.71;56.38
36692;BME280;22678;52.052;4.242;2022-07-29T06:37:44;101791.44;;;18.70;56.35
36692;BME280;22678;52.052;4.242;2022-07-29T06:40:10;101786.94;;;18.72;56.31
36692;BME280;22678;52.052;4.242;2022-07-29T06:42:54;101778.94;;;18.72;56.23
36692;BME280;22678;52.052;4.242;2022-07-29T06:45:19;101772.75;;;18.72;56.36
36692;BME280;22678;52.052;4.242;2022-07-29T06:47:45;101785.09;;;18.76;56.23
36692;BME280;22678;52.052;4.242;2022-07-29T06:50:10;101755.28;;;18.62;56.23
36692;BME280;22678;52.052;4.242;2022-07-29T06:52:38;101785.94;;;18.77;56.39
36692;BME280;22678;52.052;4.242;2022-07-29T06:55:04;101796.44;;;18.83;56.44
36692;BME280;22678;52.052;4.242;2022-07-29T06:57:30;101779.97;;;18.68;56.48
36692;BME280;22678;52.052;4.242;2022-07-29T06:59:58;101799.88;;;18.88;56.37
36692;BME280;22678;52.052;4.242;2022-07-29T07:02:23;101781.28;;;18.86;56.27
36692;BME280;22678;52.052;4.242;2022-07-29T07:04:49;101806.59;;;19.33;56.28
36692;BME280;22678;52.052;4.242;2022-07-29T07:07:14;101792.97;;;19.72;55.47
36692;BME280;22678;52.052;4.242;2022-07-29T07:09:39;101806.34;;;20.27;54.72
36692;BME280;22678;52.052;4.242;2022-07-29T07:12:05;101783.59;;;20.42;53.65
36692;BME280;22678;52.052;4.242;2022-07-29T07:14:31;101797.72;;;20.72;52.77
36692;BME280;22678;52.052;4.242;2022-07-29T07:16:56;101787.03;;;20.72;52.31
36692;BME280;22678;52.052;4.242;2022-07-29T07:19:22;101791.09;;;20.82;52.00
36692;BME280;22678;52.052;4.242;2022-07-29T07:21:47;101809.38;;;20.95;51.84
36692;BME280;22678;52.052;4.242;2022-07-29T07:24:12;101785.78;;;21.06;51.92
36692;BME280;22678;52.052;4.242;2022-07-29T07:26:37;101792.19;;;21.26;51.17
36692;BME280;22678;52.052;4.242;2022-07-29T07:29:04;101810.03;;;21.49;51.07
36692;BME280;22678;52.052;4.242;2022-07-29T07:31:30;101805.97;;;21.62;50.59
36692;BME280;22678;52.052;4.242;2022-07-29T07:33:55;101809.50;;;21.86;50.09
36692;BME280;22678;52.052;4.242;2022-07-29T07:36:21;101789.97;;;22.05;49.80
36692;BME280;22678;52.052;4.242;2022-07-29T07:38:46;101804.19;;;22.29;49.43
36692;BME280;22678;52.052;4.242;2022-07-29T07:41:11;101823.06;;;22.48;48.90
36692;BME280;22678;52.052;4.242;2022-07-29T07:43:37;101805.72;;;22.57;48.37
36692;BME280;22678;52.052;4.242;2022-07-29T07:46:02;101807.97;;;22.66;48.00
36692;BME280;22678;52.052;4.242;2022-07-29T07:48:28;101816.03;;;22.66;47.76
36692;BME280;22678;52.052;4.242;2022-07-29T07:50:54;101809.66;;;22.48;48.07
36692;BME280;22678;52.052;4.242;2022-07-29T07:53:19;101807.84;;;22.27;48.09
36692;BME280;22678;52.052;4.242;2022-07-29T07:55:44;101788.63;;;21.95;48.59
36692;BME280;22678;52.052;4.242;2022-07-29T07:58:10;101814.97;;;22.05;48.98
36692;BME280;22678;52.052;4.242;2022-07-29T08:00:35;101804.19;;;22.07;48.64
36692;BME280;22678;52.052;4.242;2022-07-29T08:03:01;101790.22;;;22.21;47.83
36692;BME280;22678;52.052;4.242;2022-07-29T08:05:27;101791.28;;;22.39;47.60
36692;BME280;22678;52.052;4.242;2022-07-29T08:07:52;101798.25;;;22.64;47.50
36692;BME280;22678;52.052;4.242;2022-07-29T08:10:19;101787.66;;;22.81;47.22
36692;BME280;22678;52.052;4.242;2022-07-29T08:13:06;101804.84;;;23.17;46.65
36692;BME280;22678;52.052;4.242;2022-07-29T08:15:32;101808.22;;;23.41;45.83
36692;BME280;22678;52.052;4.242;2022-07-29T08:17:58;101813.06;;;23.71;45.55
36692;BME280;22678;52.052;4.242;2022-07-29T08:20:24;101807.47;;;23.94;45.30
36692;BME280;22678;52.052;4.242;2022-07-29T08:22:49;101801.06;;;24.16;44.69
36692;BME280;22678;52.052;4.242;2022-07-29T08:25:14;101780.41;;;24.17;44.31
36692;BME280;22678;52.052;4.242;2022-07-29T08:27:40;101795.03;;;24.28;44.14
36692;BME280;22678;52.052;4.242;2022-07-29T08:30:06;101819.69;;;24.54;43.87
36692;BME280;22678;52.052;4.242;2022-07-29T08:32:31;101804.72;;;24.68;43.88
36692;BME280;22678;52.052;4.242;2022-07-29T08:34:57;101803.22;;;24.79;43.46
36692;BME280;22678;52.052;4.242;2022-07-29T08:37:22;101809.69;;;24.75;43.03
36692;BME280;22678;52.052;4.242;2022-07-29T08:39:47;101803.38;;;24.59;43.50
36692;BME280;22678;52.052;4.242;2022-07-29T08:42:13;101810.56;;;24.76;43.71
36692;BME280;22678;52.052;4.242;2022-07-29T08:44:38;101798.66;;;24.97;43.30
36692;BME280;22678;52.052;4.242;2022-07-29T08:47:04;101804.97;;;25.30;42.76
36692;BME280;22678;52.052;4.242;2022-07-29T08:49:30;101803.28;;;25.45;42.63
36692;BME280;22678;52.052;4.242;2022-07-29T08:51:56;101820.75;;;25.69;42.05
36692;BME280;22678;52.052;4.242;2022-07-29T08:54:23;101809.34;;;25.64;41.51
36692;BME280;22678;52.052;4.242;2022-07-29T08:56:50;101797.38;;;25.54;41.51
36692;BME280;22678;52.052;4.242;2022-07-29T08:59:19;101800.88;;;25.56;41.47
36692;BME280;22678;52.052;4.242;2022-07-29T09:01:46;101814.75;;;25.64;41.44
36692;BME280;22678;52.052;4.242;2022-07-29T09:04:13;101816.31;;;25.68;41.48
36692;BME280;22678;52.052;4.242;2022-07-29T09:06:45;101804.41;;;25.73;40.97
36692;BME280;22678;52.052;4.242;2022-07-29T09:09:12;101818.66;;;25.75;41.07
36692;BME280;22678;52.052;4.242;2022-07-29T09:11:39;101816.50;;;25.81;40.97
36692;BME280;22678;52.052;4.242;2022-07-29T09:14:05;101819.72;;;26.04;41.04
36692;BME280;22678;52.052;4.242;2022-07-29T09:16:50;101812.34;;;26.22;40.71
36692;BME280;22678;52.052;4.242;2022-07-29T09:19:30;101806.72;;;26.27;40.39
36692;BME280;22678;52.052;4.242;2022-07-29T09:21:58;101812.22;;;26.25;40.33
36692;BME280;22678;52.052;4.242;2022-07-29T09:24:45;101807.03;;;26.36;40.72
36692;BME280;22678;52.052;4.242;2022-07-29T09:27:25;101811.31;;;26.55;40.44
36692;BME280;22678;52.052;4.242;2022-07-29T09:30:00;101801.34;;;26.71;40.49
36692;BME280;22678;52.052;4.242;2022-07-29T09:32:26;101790.00;;;26.81;40.60
36692;BME280;22678;52.052;4.242;2022-07-29T09:35:15;101802.63;;;27.09;40.69
36692;BME280;22678;52.052;4.242;2022-07-29T09:37:42;101808.72;;;27.27;40.73
36692;BME280;22678;52.052;4.242;2022-07-29T09:40:18;101803.41;;;27.40;41.39
36692;BME280;22678;52.052;4.242;2022-07-29T09:42:45;101791.81;;;27.52;40.93
36692;BME280;22678;52.052;4.242;2022-07-29T09:45:10;101807.91;;;27.68;39.88
36692;BME280;22678;52.052;4.242;2022-07-29T09:50:10;101801.78;;;27.79;40.62
36692;BME280;22678;52.052;4.242;2022-07-29T09:52:45;101819.00;;;27.91;39.86
36692;BME280;22678;52.052;4.242;2022-07-29T09:55:12;101812.59;;;27.79;39.39
36692;BME280;22678;52.052;4.242;2022-07-29T09:57:37;101802.13;;;27.60;39.68
36692;BME280;22678;52.052;4.242;2022-07-29T10:00:08;101819.75;;;27.66;40.18
36692;BME280;22678;52.052;4.242;2022-07-29T10:02:35;101808.84;;;27.67;40.23
36692;BME280;22678;52.052;4.242;2022-07-29T10:05:03;101822.88;;;27.87;40.18
36692;BME280;22678;52.052;4.242;2022-07-29T10:10:32;101818.84;;;28.21;40.26
36692;BME280;22678;52.052;4.242;2022-07-29T10:13:04;101798.38;;;28.17;39.92
36692;BME280;22678;52.052;4.242;2022-07-29T10:15:31;101809.78;;;28.35;39.86
36692;BME280;22678;52.052;4.242;2022-07-29T10:17:58;101805.88;;;28.39;39.56
36692;BME280;22678;52.052;4.242;2022-07-29T10:20:26;101801.00;;;28.44;39.52
36692;BME280;22678;52.052;4.242;2022-07-29T10:22:53;101820.25;;;28.67;39.54
36692;BME280;22678;52.052;4.242;2022-07-29T10:25:19;101804.88;;;28.67;39.15
36692;BME280;22678;52.052;4.242;2022-07-29T10:27:46;101796.13;;;28.64;38.85
36692;BME280;22678;52.052;4.242;2022-07-29T10:30:12;101807.34;;;28.58;38.85
36692;BME280;22678;52.052;4.242;2022-07-29T10:41:59;101805.00;;;28.79;38.52
36692;BME280;22678;52.052;4.242;2022-07-29T10:44:27;101811.50;;;28.89;38.68
36692;BME280;22678;52.052;4.242;2022-07-29T10:46:54;101807.16;;;28.99;38.03
36692;BME280;22678;52.052;4.242;2022-07-29T10:49:21;101804.56;;;28.98;37.89
36692;BME280;22678;52.052;4.242;2022-07-29T10:54:16;101819.72;;;29.00;38.32
36692;BME280;22678;52.052;4.242;2022-07-29T10:56:41;101789.38;;;28.95;38.57
36692;BME280;22678;52.052;4.242;2022-07-29T11:01:52;101810.78;;;29.37;38.03
36692;BME280;22678;52.052;4.242;2022-07-29T11:07:11;101789.94;;;29.50;37.90
36692;BME280;22678;52.052;4.242;2022-07-29T11:09:41;101781.50;;;29.55;37.73
36692;BME280;22678;52.052;4.242;2022-07-29T11:15:02;101800.94;;;29.73;37.26
36692;BME280;22678;52.052;4.242;2022-07-29T11:17:28;101805.28;;;29.76;37.02
36692;BME280;22678;52.052;4.242;2022-07-29T11:22:57;101820.44;;;29.78;36.51
36692;BME280;22678;52.052;4.242;2022-07-29T11:25:22;101800.47;;;29.79;36.47
36692;BME280;22678;52.052;4.242;2022-07-29T11:27:48;101810.88;;;29.85;36.62
36692;BME280;22678;52.052;4.242;2022-07-29T11:30:14;101789.84;;;29.89;36.32
36692;BME280;22678;52.052;4.242;2022-07-29T11:32:42;101799.13;;;29.98;36.26
36692;BME280;22678;52.052;4.242;2022-07-29T11:35:20;101802.28;;;30.16;36.24
36692;BME280;22678;52.052;4.242;2022-07-29T11:43:55;101808.34;;;30.55;35.79
36692;BME280;22678;52.052;4.242;2022-07-29T11:46:49;101816.03;;;30.61;35.39
36692;BME280;22678;52.052;4.242;2022-07-29T11:49:22;101802.31;;;30.51;34.95
36692;BME280;22678;52.052;4.242;2022-07-29T11:51:52;101806.00;;;30.50;35.14
36692;BME280;22678;52.052;4.242;2022-07-29T11:54:24;101803.94;;;30.54;34.99
36692;BME280;22678;52.052;4.242;2022-07-29T11:56:51;101810.94;;;30.56;34.83
36692;BME280;22678;52.052;4.242;2022-07-29T11:59:17;101811.41;;;30.50;34.82
36692;BME280;22678;52.052;4.242;2022-07-29T12:01:58;101807.25;;;30.57;34.66
36692;BME280;22678;52.052;4.242;2022-07-29T12:04:23;101800.06;;;30.56;34.64
36692;BME280;22678;52.052;4.242;2022-07-29T12:06:54;101797.28;;;30.58;34.55
36692;BME280;22678;52.052;4.242;2022-07-29T12:09:20;101818.75;;;30.61;34.42
36692;BME280;22678;52.052;4.242;2022-07-29T12:11:46;101809.22;;;30.55;34.50
36692;BME280;22678;52.052;4.242;2022-07-29T12:14:31;101821.44;;;30.50;34.34
36692;BME280;22678;52.052;4.242;2022-07-29T12:16:58;101799.53;;;30.40;34.55
36692;BME280;22678;52.052;4.242;2022-07-29T12:19:24;101830.47;;;30.62;34.41
36692;BME280;22678;52.052;4.242;2022-07-29T12:21:51;101822.81;;;30.67;34.16
36692;BME280;22678;52.052;4.242;2022-07-29T12:24:18;101823.53;;;30.57;33.98
36692;BME280;22678;52.052;4.242;2022-07-29T12:29:16;101821.94;;;30.66;34.00
36692;BME280;22678;52.052;4.242;2022-07-29T12:31:43;101832.22;;;30.85;34.35
36692;BME280;22678;52.052;4.242;2022-07-29T12:34:10;101808.44;;;30.89;33.94
36692;BME280;22678;52.052;4.242;2022-07-29T12:36:36;101822.66;;;31.04;33.88
36692;BME280;22678;52.052;4.242;2022-07-29T12:39:02;101833.38;;;31.17;33.68
36692;BME280;22678;52.052;4.242;2022-07-29T12:41:29;101812.03;;;31.12;33.81
36692;BME280;22678;52.052;4.242;2022-07-29T12:43:54;101841.78;;;31.25;33.67
36692;BME280;22678;52.052;4.242;2022-07-29T12:46:20;101825.50;;;31.25;33.25
36692;BME280;22678;52.052;4.242;2022-07-29T12:48:50;101833.91;;;31.22;32.84
36692;BME280;22678;52.052;4.242;2022-07-29T12:51:16;101775.31;;;30.84;32.95
36692;BME280;22678;52.052;4.242;2022-07-29T12:54:02;101820.06;;;31.14;32.82
36692;BME280;22678;52.052;4.242;2022-07-29T12:56:28;101821.06;;;31.13;32.80
36692;BME280;22678;52.052;4.242;2022-07-29T12:58:53;101810.91;;;31.15;32.72
36692;BME280;22678;52.052;4.242;2022-07-29T13:01:19;101825.38;;;31.26;32.93
36692;BME280;22678;52.052;4.242;2022-07-29T13:03:52;101836.25;;;31.38;33.08
36692;BME280;22678;52.052;4.242;2022-07-29T13:06:33;101826.09;;;31.51;33.16
36692;BME280;22678;52.052;4.242;2022-07-29T13:09:05;101835.25;;;31.61;33.10
36692;BME280;22678;52.052;4.242;2022-07-29T13:11:34;101841.03;;;31.68;33.04
36692;BME280;22678;52.052;4.242;2022-07-29T13:13:59;101834.22;;;31.74;32.75
36692;BME280;22678;52.052;4.242;2022-07-29T13:16:25;101820.09;;;31.80;32.74
36692;BME280;22678;52.052;4.242;2022-07-29T13:19:11;101817.75;;;31.87;32.45
36692;BME280;22678;52.052;4.242;2022-07-29T13:21:38;101839.94;;;32.03;32.32
36692;BME280;22678;52.052;4.242;2022-07-29T13:24:07;101839.63;;;31.96;31.74
36692;BME280;22678;52.052;4.242;2022-07-29T13:26:33;101824.03;;;31.87;31.84
36692;BME280;22678;52.052;4.242;2022-07-29T13:28:58;101837.63;;;31.99;31.87
36692;BME280;22678;52.052;4.242;2022-07-29T13:31:24;101835.13;;;32.07;32.22
36692;BME280;22678;52.052;4.242;2022-07-29T13:33:49;101831.38;;;32.08;32.08
36692;BME280;22678;52.052;4.242;2022-07-29T13:36:14;101842.13;;;32.21;32.03
36692;BME280;22678;52.052;4.242;2022-07-29T13:38:39;101820.25;;;32.11;31.72
36692;BME280;22678;52.052;4.242;2022-07-29T13:41:05;101846.53;;;32.33;31.46
36692;BME280;22678;52.052;4.242;2022-07-29T13:43:30;101828.22;;;32.35;31.85